Time;durP1;ratioP1;P1;durP2;ratioP2;P2;SDS_P1;SDS_P2;PMS_P1;PMS_P2;Temp;Humidity;BMP_temperature;BMP_pressure;BME280_temperature;BME280_humidity;BME280_pressure;Samples;Min_cycle;Max_cycle;Signal;HPM_P1;HPM_P2
2023/07/10 00:02:01;;;;;;;8.10;5.07;;;;;;;;;;5051145;28;20522;-64
2023/07/10 00:04:27;;;;;;;11.03;3.80;;;;;;;;;;5052273;28;20422;-64
2023/07/10 00:06:52;;;;;;;3.33;3.13;;;;;;;;;;5054148;28;20454;-64
2023/07/10 00:09:18;;;;;;;2.80;2.70;;;;;;;;;;5034366;28;20188;-64
2023/07/10 00:11:45;;;;;;;9.87;4.13;;;;;;;;;;5042739;28;20955;-64
2023/07/10 00:14:21;;;;;;;5.50;4.30;;;;;;;;;;5049998;28;20533;-64
2023/07/10 00:16:48;;;;;;;16.67;4.67;;;;;;;;;;5053905;28;20453;-64
2023/07/10 00:19:15;;;;;;;4.50;4.20;;;;;;;;;;5053907;28;20468;-64
2023/07/10 00:21:41;;;;;;;4.27;4.10;;;;;;;;;;5052467;28;20813;-64
2023/07/10 00:24:07;;;;;;;5.10;4.33;;;;;;;;;;5049090;28;20544;-64
2023/07/10 00:26:37;;;;;;;6.83;4.53;;;;;;;;;;5018943;28;20427;-64
2023/07/10 00:29:08;;;;;;;5.83;4.13;;;;;;;;;;5034153;28;20442;-64
2023/07/10 00:31:34;;;;;;;4.30;3.70;;;;;;;;;;5033854;28;20418;-64
2023/07/10 00:34:00;;;;;;;4.70;4.30;;;;;;;;;;5033169;28;20439;-64
2023/07/10 00:36:29;;;;;;;4.50;4.30;;;;;;;;;;5051751;28;20227;-64
2023/07/10 00:38:55;;;;;;;4.53;4.23;;;;;;;;;;5051616;28;20421;-64
2023/07/10 00:41:23;;;;;;;7.13;3.97;;;;;;;;;;5052513;28;20462;-64
2023/07/10 00:43:53;;;;;;;6.63;3.50;;;;;;;;;;5053103;28;20474;-64
2023/07/10 00:46:29;;;;;;;6.23;3.27;;;;;;;;;;5052066;28;20515;-64
2023/07/10 00:49:01;;;;;;;3.83;2.70;;;;;;;;;;5053174;28;20468;-64
2023/07/10 00:51:31;;;;;;;11.83;3.53;;;;;;;;;;5048986;28;20922;-64
2023/07/10 00:53:58;;;;;;;6.60;4.30;;;;;;;;;;5051574;28;20434;-64
2023/07/10 00:56:26;;;;;;;19.00;3.77;;;;;;;;;;5051834;28;20430;-64
2023/07/10 00:58:52;;;;;;;8.60;3.50;;;;;;;;;;5037088;28;21117;-64
2023/07/10 01:01:19;;;;;;;7.60;3.00;;;;;;;;;;5033135;28;20518;-64
2023/07/10 01:03:46;;;;;;;6.33;3.60;;;;;;;;;;5032683;28;20466;-64
2023/07/10 01:06:31;;;;;;;13.10;3.70;;;;;;;;;;5040768;28;20442;-64
2023/07/10 01:09:02;;;;;;;4.20;3.70;;;;;;;;;;5038019;28;20446;-64
2023/07/10 01:11:29;;;;;;;3.17;3.03;;;;;;;;;;5053041;28;20406;-64
2023/07/10 01:13:56;;;;;;;2.93;2.57;;;;;;;;;;5052711;28;20808;-65
2023/07/10 01:16:23;;;;;;;4.97;4.50;;;;;;;;;;5038401;28;20439;-64
2023/07/10 01:18:49;;;;;;;2.73;2.40;;;;;;;;;;5033169;28;20415;-64
2023/07/10 01:21:24;;;;;;;4.27;3.97;;;;;;;;;;5032991;28;20461;-64
2023/07/10 01:23:51;;;;;;;5.70;3.70;;;;;;;;;;5037869;28;20509;-65
2023/07/10 01:26:17;;;;;;;4.07;3.47;;;;;;;;;;5051368;28;20442;-65
2023/07/10 01:28:43;;;;;;;3.60;3.40;;;;;;;;;;5033019;28;20474;-65
2023/07/10 01:31:12;;;;;;;4.20;3.90;;;;;;;;;;5037373;28;20435;-64
2023/07/10 01:33:40;;;;;;;11.83;4.17;;;;;;;;;;5032294;28;20427;-64
2023/07/10 01:36:07;;;;;;;8.93;4.20;;;;;;;;;;5035364;28;20532;-65
2023/07/10 01:38:42;;;;;;;4.50;4.10;;;;;;;;;;5052456;28;20458;-64
2023/07/10 01:41:31;;;;;;;6.20;4.00;;;;;;;;;;5051131;28;20455;-64
2023/07/10 01:43:58;;;;;;;6.33;4.20;;;;;;;;;;5040909;28;20573;-64
2023/07/10 01:46:27;;;;;;;4.70;4.30;;;;;;;;;;5051269;28;20998;-65
2023/07/10 01:48:55;;;;;;;3.87;3.57;;;;;;;;;;5052422;28;20560;-64
2023/07/10 01:51:22;;;;;;;5.17;4.10;;;;;;;;;;5043604;28;20423;-64
2023/07/10 01:53:48;;;;;;;5.40;3.70;;;;;;;;;;5031602;28;20434;-64
2023/07/10 01:56:14;;;;;;;3.57;2.20;;;;;;;;;;5032172;28;20511;-64
2023/07/10 01:58:40;;;;;;;2.40;2.30;;;;;;;;;;5038484;28;20450;-64
2023/07/10 02:01:07;;;;;;;3.33;3.13;;;;;;;;;;5052422;28;20402;-64
2023/07/10 02:03:33;;;;;;;5.27;4.80;;;;;;;;;;5048037;28;20495;-64
2023/07/10 02:05:59;;;;;;;4.93;3.50;;;;;;;;;;5042821;28;20507;-64
2023/07/10 02:08:25;;;;;;;4.37;4.17;;;;;;;;;;5050530;28;20457;-64
2023/07/10 02:10:51;;;;;;;6.07;4.10;;;;;;;;;;5052542;28;20418;-64
2023/07/10 02:13:17;;;;;;;4.30;3.93;;;;;;;;;;5050839;28;20537;-64
2023/07/10 02:15:43;;;;;;;8.20;4.50;;;;;;;;;;5052937;28;20516;-64
2023/07/10 02:18:09;;;;;;;4.40;4.03;;;;;;;;;;5050505;28;20452;-64
2023/07/10 02:20:35;;;;;;;16.37;4.40;;;;;;;;;;5056128;28;20422;-65
2023/07/10 02:23:01;;;;;;;4.90;4.60;;;;;;;;;;5055221;28;20508;-66
2023/07/10 02:25:27;;;;;;;5.00;4.67;;;;;;;;;;5043037;28;20466;-66
2023/07/10 02:27:53;;;;;;;7.80;3.43;;;;;;;;;;5045323;28;20477;-64
2023/07/10 02:30:19;;;;;;;8.23;4.10;;;;;;;;;;5050497;28;20451;-64
2023/07/10 02:32:44;;;;;;;3.90;3.77;;;;;;;;;;5035453;28;20185;-64
2023/07/10 02:35:11;;;;;;;4.60;4.40;;;;;;;;;;5035777;28;20422;-64
2023/07/10 02:37:37;;;;;;;8.87;3.83;;;;;;;;;;5039223;28;20184;-64
2023/07/10 02:40:03;;;;;;;3.50;3.40;;;;;;;;;;5040555;28;20431;-64
2023/07/10 02:42:29;;;;;;;8.17;4.23;;;;;;;;;;5049367;28;20552;-64
2023/07/10 02:44:55;;;;;;;6.93;4.30;;;;;;;;;;5055734;28;20454;-64
2023/07/10 02:47:21;;;;;;;5.00;4.60;;;;;;;;;;5053581;28;20443;-64
2023/07/10 02:49:47;;;;;;;4.93;4.60;;;;;;;;;;5045333;28;20483;-64
2023/07/10 02:52:13;;;;;;;7.23;5.27;;;;;;;;;;5035734;28;20778;-64
2023/07/10 02:54:39;;;;;;;7.83;4.70;;;;;;;;;;5037394;28;20717;-64
2023/07/10 02:57:05;;;;;;;6.03;5.47;;;;;;;;;;5055498;28;20493;-64
2023/07/10 02:59:31;;;;;;;4.93;4.43;;;;;;;;;;5044685;28;20503;-64
2023/07/10 03:01:59;;;;;;;4.53;4.13;;;;;;;;;;5055316;28;20458;-65
2023/07/10 03:04:26;;;;;;;4.40;4.00;;;;;;;;;;5053851;28;20575;-64
2023/07/10 03:06:52;;;;;;;4.20;4.00;;;;;;;;;;5054208;28;20442;-64
2023/07/10 03:09:18;;;;;;;5.33;4.93;;;;;;;;;;5053484;28;20499;-65
2023/07/10 03:11:44;;;;;;;4.83;4.37;;;;;;;;;;5055203;28;20442;-64
2023/07/10 03:14:10;;;;;;;5.73;5.23;;;;;;;;;;5036038;28;20864;-64
2023/07/10 03:16:36;;;;;;;5.90;5.30;;;;;;;;;;5035087;28;20423;-64
2023/07/10 03:19:02;;;;;;;8.63;4.70;;;;;;;;;;5036400;28;20466;-64
2023/07/10 03:21:28;;;;;;;10.33;4.50;;;;;;;;;;5045229;28;20434;-64
2023/07/10 03:23:54;;;;;;;7.03;4.97;;;;;;;;;;5044850;28;20989;-65
2023/07/10 03:26:20;;;;;;;8.03;3.30;;;;;;;;;;5040042;28;20525;-65
2023/07/10 03:28:46;;;;;;;6.93;6.27;;;;;;;;;;5033930;28;20430;-65
2023/07/10 03:31:12;;;;;;;8.53;5.50;;;;;;;;;;5035065;28;20930;-64
2023/07/10 03:33:38;;;;;;;8.43;5.70;;;;;;;;;;5039858;28;20481;-65
2023/07/10 03:36:08;;;;;;;7.23;5.67;;;;;;;;;;5054762;28;20421;-65
2023/07/10 03:38:34;;;;;;;11.83;4.60;;;;;;;;;;5053401;28;20493;-64
2023/07/10 03:41:00;;;;;;;10.63;6.30;;;;;;;;;;5054771;28;20438;-65
2023/07/10 03:43:27;;;;;;;6.53;4.80;;;;;;;;;;5040117;28;20475;-64
2023/07/10 03:45:53;;;;;;;8.80;5.80;;;;;;;;;;5054518;28;20925;-64
2023/07/10 03:48:19;;;;;;;6.83;5.20;;;;;;;;;;5054374;28;20423;-65
2023/07/10 03:50:45;;;;;;;6.47;5.13;;;;;;;;;;5052982;28;20458;-64
2023/07/10 03:53:11;;;;;;;5.50;5.00;;;;;;;;;;5052711;28;20450;-64
2023/07/10 03:55:37;;;;;;;4.67;4.23;;;;;;;;;;5052822;28;20449;-64
2023/07/10 03:58:03;;;;;;;6.23;5.43;;;;;;;;;;5037324;28;20520;-64
2023/07/10 04:00:29;;;;;;;10.60;5.20;;;;;;;;;;5033934;28;20427;-64
2023/07/10 04:02:55;;;;;;;5.33;4.37;;;;;;;;;;5033682;28;20485;-65
2023/07/10 04:05:21;;;;;;;12.63;6.27;;;;;;;;;;5045038;28;20276;-65
2023/07/10 04:07:47;;;;;;;14.90;7.57;;;;;;;;;;5051243;28;20537;-65
2023/07/10 04:10:12;;;;;;;8.20;6.07;;;;;;;;;;5054091;28;20425;-65
2023/07/10 04:12:43;;;;;;;15.90;6.53;;;;;;;;;;5034919;28;20188;-65
2023/07/10 04:15:09;;;;;;;12.20;6.60;;;;;;;;;;5040124;28;20184;-65
2023/07/10 04:17:35;;;;;;;3.03;2.73;;;;;;;;;;5050144;28;20439;-65
2023/07/10 04:20:01;;;;;;;10.97;4.87;;;;;;;;;;5034108;28;20411;-64
2023/07/10 04:22:27;;;;;;;6.20;5.70;;;;;;;;;;5038442;28;20917;-64
2023/07/10 04:24:53;;;;;;;13.93;6.03;;;;;;;;;;5053814;28;20184;-65
2023/07/10 04:27:19;;;;;;;13.90;6.53;;;;;;;;;;5053843;28;20187;-64
2023/07/10 04:29:45;;;;;;;7.97;6.00;;;;;;;;;;5053725;28;20414;-65
2023/07/10 04:32:11;;;;;;;6.67;5.97;;;;;;;;;;5052301;28;20199;-65
2023/07/10 04:34:36;;;;;;;9.50;5.77;;;;;;;;;;5037651;28;20521;-65
2023/07/10 04:37:02;;;;;;;6.30;5.30;;;;;;;;;;5038369;28;20449;-65
2023/07/10 04:39:28;;;;;;;16.27;6.53;;;;;;;;;;5045739;28;20191;-65
2023/07/10 04:41:54;;;;;;;8.43;6.27;;;;;;;;;;5036942;28;20449;-70
2023/07/10 04:44:20;;;;;;;14.20;7.27;;;;;;;;;;5042470;28;20215;-70
2023/07/10 04:46:46;;;;;;;7.30;5.90;;;;;;;;;;5036011;28;20800;-70
2023/07/10 04:49:12;;;;;;;8.87;5.90;;;;;;;;;;5053186;28;20474;-70
2023/07/10 04:51:38;;;;;;;13.47;8.07;;;;;;;;;;5050948;28;20524;-70
2023/07/10 04:54:04;;;;;;;11.63;5.70;;;;;;;;;;5052503;28;20422;-70
2023/07/10 04:56:30;;;;;;;14.70;6.23;;;;;;;;;;5053379;28;20176;-70
2023/07/10 04:58:57;;;;;;;7.33;6.67;;;;;;;;;;5053109;28;20423;-70
2023/07/10 05:01:27;;;;;;;17.93;6.30;;;;;;;;;;5045731;28;20427;-70
2023/07/10 05:03:53;;;;;;;7.07;5.60;;;;;;;;;;5046795;28;20494;-70
2023/07/10 05:06:19;;;;;;;5.73;5.00;;;;;;;;;;5052115;28;20443;-70
2023/07/10 05:08:45;;;;;;;11.63;5.60;;;;;;;;;;5045913;28;20457;-69
2023/07/10 05:11:11;;;;;;;13.80;6.27;;;;;;;;;;5051961;28;20468;-69
2023/07/10 05:13:37;;;;;;;8.67;6.17;;;;;;;;;;5044226;28;21112;-69
2023/07/10 05:16:03;;;;;;;12.67;6.40;;;;;;;;;;5033173;28;20420;-70
2023/07/10 05:18:29;;;;;;;6.37;5.77;;;;;;;;;;5034954;28;20546;-70
2023/07/10 05:20:57;;;;;;;7.23;5.90;;;;;;;;;;5052110;28;20588;-69
2023/07/10 05:23:22;;;;;;;8.00;6.20;;;;;;;;;;5051292;28;20485;-72
2023/07/10 05:25:54;;;;;;;6.10;5.50;;;;;;;;;;5030829;28;20815;-72
2023/07/10 05:28:20;;;;;;;8.93;6.63;;;;;;;;;;5040980;28;20533;-72
2023/07/10 05:30:46;;;;;;;7.23;6.53;;;;;;;;;;5029091;28;21068;-72
2023/07/10 05:33:12;;;;;;;8.10;6.23;;;;;;;;;;5029981;28;20828;-72
2023/07/10 05:35:47;;;;;;;11.20;7.30;;;;;;;;;;5035754;28;20449;-72
2023/07/10 05:38:13;;;;;;;9.23;7.33;;;;;;;;;;5038929;28;20259;-72
2023/07/10 05:40:42;;;;;;;13.27;8.17;;;;;;;;;;5046535;28;20994;-72
2023/07/10 05:43:08;;;;;;;9.17;7.90;;;;;;;;;;5051904;28;20470;-73
2023/07/10 05:45:34;;;;;;;7.73;6.93;;;;;;;;;;5052318;28;20425;-72
2023/07/10 05:48:00;;;;;;;9.73;6.30;;;;;;;;;;5052256;28;20464;-73
2023/07/10 05:50:26;;;;;;;17.60;6.90;;;;;;;;;;5033392;28;20294;-72
2023/07/10 05:52:52;;;;;;;6.50;5.90;;;;;;;;;;5035613;28;20237;-72
2023/07/10 05:55:18;;;;;;;6.83;5.90;;;;;;;;;;5036670;28;20431;-72
2023/07/10 05:57:44;;;;;;;6.93;6.40;;;;;;;;;;5037134;28;20220;-73
2023/07/10 06:00:11;;;;;;;7.50;6.10;;;;;;;;;;5054918;28;20470;-73
2023/07/10 06:02:36;;;;;;;11.30;5.70;;;;;;;;;;5055584;28;20234;-72
2023/07/10 06:05:02;;;;;;;6.90;5.70;;;;;;;;;;5043158;28;20454;-72
2023/07/10 06:07:28;;;;;;;6.63;6.13;;;;;;;;;;5035737;28;20181;-73
2023/07/10 06:09:54;;;;;;;6.00;5.50;;;;;;;;;;5041392;28;20457;-72
2023/07/10 06:12:20;;;;;;;6.77;6.10;;;;;;;;;;5034446;28;20479;-72
2023/07/10 06:14:46;;;;;;;10.43;6.23;;;;;;;;;;5030796;28;20185;-69
2023/07/10 06:17:12;;;;;;;9.47;8.17;;;;;;;;;;5033204;28;20418;-69
2023/07/10 06:19:38;;;;;;;13.60;6.30;;;;;;;;;;5032859;28;20930;-70
2023/07/10 06:22:09;;;;;;;10.33;6.90;;;;;;;;;;5032420;28;20771;-70
2023/07/10 06:24:35;;;;;;;7.17;6.07;;;;;;;;;;5031779;28;20253;-70
2023/07/10 06:27:02;;;;;;;8.53;5.93;;;;;;;;;;5030989;28;20435;-70
2023/07/10 06:29:28;;;;;;;13.20;7.93;;;;;;;;;;5031455;28;20447;-70
2023/07/10 06:31:54;;;;;;;8.77;5.97;;;;;;;;;;5032357;28;20447;-69
2023/07/10 06:34:20;;;;;;;13.40;7.23;;;;;;;;;;5031356;28;20478;-70
2023/07/10 06:36:46;;;;;;;9.77;5.50;;;;;;;;;;5031588;28;20196;-65
2023/07/10 06:39:12;;;;;;;6.70;6.10;;;;;;;;;;5032694;28;20439;-65
2023/07/10 06:41:38;;;;;;;10.00;7.10;;;;;;;;;;5032604;28;20850;-65
2023/07/10 06:44:04;;;;;;;7.03;5.30;;;;;;;;;;5032230;28;20629;-70
2023/07/10 06:46:30;;;;;;;19.03;6.00;;;;;;;;;;5031190;28;20276;-70
2023/07/10 06:48:56;;;;;;;6.20;5.60;;;;;;;;;;5032267;28;20549;-70
2023/07/10 06:51:22;;;;;;;9.30;6.00;;;;;;;;;;5032331;28;20216;-70
2023/07/10 06:53:48;;;;;;;6.47;5.17;;;;;;;;;;5029348;28;20196;-70
2023/07/10 06:56:14;;;;;;;6.73;4.63;;;;;;;;;;5028297;28;20443;-70
2023/07/10 06:58:40;;;;;;;7.83;5.50;;;;;;;;;;5024652;28;20922;-70
2023/07/10 07:01:06;;;;;;;12.77;5.07;;;;;;;;;;5031317;28;20807;-69
2023/07/10 07:03:32;;;;;;;7.27;4.57;;;;;;;;;;5031210;28;20482;-70
2023/07/10 07:05:58;;;;;;;7.60;5.83;;;;;;;;;;5031703;28;20427;-70
2023/07/10 07:08:25;;;;;;;4.20;4.10;;;;;;;;;;5031366;28;20443;-70
2023/07/10 07:10:52;;;;;;;10.20;4.30;;;;;;;;;;5031551;28;20451;-70
2023/07/10 07:13:18;;;;;;;6.43;3.93;;;;;;;;;;5030832;28;20455;-70
2023/07/10 07:15:45;;;;;;;4.80;4.57;;;;;;;;;;5031572;28;20526;-69
2023/07/10 07:18:11;;;;;;;4.60;4.30;;;;;;;;;;5031112;28;20427;-70
2023/07/10 07:20:38;;;;;;;3.63;3.53;;;;;;;;;;5031327;28;20430;-69
2023/07/10 07:23:04;;;;;;;3.80;3.70;;;;;;;;;;5029583;28;20232;-70
2023/07/10 07:25:30;;;;;;;4.47;4.17;;;;;;;;;;5030745;28;20478;-70
2023/07/10 07:28:03;;;;;;;4.00;3.60;;;;;;;;;;5030678;28;20189;-70
2023/07/10 07:30:29;;;;;;;7.77;4.13;;;;;;;;;;5030438;28;20444;-70
2023/07/10 07:32:55;;;;;;;3.90;3.67;;;;;;;;;;5031549;28;20423;-70
2023/07/10 07:35:21;;;;;;;5.90;4.00;;;;;;;;;;5030628;28;20525;-70
2023/07/10 07:37:47;;;;;;;3.53;3.43;;;;;;;;;;5031094;28;20527;-69
2023/07/10 07:40:16;;;;;;;4.07;3.80;;;;;;;;;;5035014;28;20419;-69
2023/07/10 07:42:42;;;;;;;3.53;3.20;;;;;;;;;;5035036;28;20209;-69
2023/07/10 07:45:08;;;;;;;3.57;3.33;;;;;;;;;;5034851;28;20431;-69
2023/07/10 07:47:34;;;;;;;3.80;3.50;;;;;;;;;;5035088;28;20441;-69
2023/07/10 07:50:00;;;;;;;5.60;3.57;;;;;;;;;;5034683;28;20471;-69
2023/07/10 07:52:26;;;;;;;8.00;3.90;;;;;;;;;;5034708;28;20407;-69
2023/07/10 07:54:52;;;;;;;5.43;4.00;;;;;;;;;;5034816;28;20485;-69
2023/07/10 07:57:18;;;;;;;9.03;3.47;;;;;;;;;;5034979;28;20482;-69
2023/07/10 07:59:44;;;;;;;7.63;4.70;;;;;;;;;;5034908;28;20423;-69
2023/07/10 08:02:10;;;;;;;4.27;2.90;;;;;;;;;;5035211;28;20427;-70
2023/07/10 08:04:36;;;;;;;3.53;3.17;;;;;;;;;;5034741;28;20834;-69
2023/07/10 08:07:02;;;;;;;3.70;3.03;;;;;;;;;;5034410;28;20647;-69
2023/07/10 08:09:28;;;;;;;4.20;3.90;;;;;;;;;;5034531;28;20427;-69
2023/07/10 08:11:54;;;;;;;3.37;3.17;;;;;;;;;;5034404;28;20423;-69
2023/07/10 08:14:20;;;;;;;5.47;3.47;;;;;;;;;;5033778;28;20180;-70
2023/07/10 08:16:46;;;;;;;4.83;4.37;;;;;;;;;;5034694;28;20451;-69
2023/07/10 08:19:12;;;;;;;4.90;3.50;;;;;;;;;;5034755;28;20847;-69
2023/07/10 08:21:38;;;;;;;3.13;2.93;;;;;;;;;;5034335;28;20581;-69
2023/07/10 08:24:04;;;;;;;6.30;3.83;;;;;;;;;;5034372;28;20575;-69
2023/07/10 08:26:31;;;;;;;6.13;3.50;;;;;;;;;;5034917;28;20436;-69
2023/07/10 08:28:57;;;;;;;3.73;3.30;;;;;;;;;;5034387;28;20426;-70
2023/07/10 08:31:24;;;;;;;4.63;3.17;;;;;;;;;;5034452;28;20419;-70
2023/07/10 08:33:50;;;;;;;3.30;3.00;;;;;;;;;;5034268;28;20411;-70
2023/07/10 08:36:16;;;;;;;3.60;3.40;;;;;;;;;;5033966;28;20412;-69
2023/07/10 08:38:42;;;;;;;3.70;3.43;;;;;;;;;;5034190;28;20442;-69
2023/07/10 08:41:17;;;;;;;3.03;2.90;;;;;;;;;;5034151;28;20184;-69
2023/07/10 08:43:43;;;;;;;8.63;3.30;;;;;;;;;;5034146;28;20506;-69
2023/07/10 08:46:15;;;;;;;4.63;3.47;;;;;;;;;;5033796;28;20981;-69
2023/07/10 08:48:46;;;;;;;3.37;3.03;;;;;;;;;;5033772;28;20459;-70
2023/07/10 08:51:22;;;;;;;3.83;2.50;;;;;;;;;;5033879;28;20423;-69
2023/07/10 08:54:08;;;;;;;3.00;2.90;;;;;;;;;;5033848;28;20414;-70
2023/07/10 08:56:34;;;;;;;3.50;3.30;;;;;;;;;;5029787;28;20996;-70
2023/07/10 08:59:19;;;;;;;3.70;3.50;;;;;;;;;;5033997;28;20416;-70
2023/07/10 09:01:48;;;;;;;3.37;3.10;;;;;;;;;;5033673;28;20429;-66
2023/07/10 09:04:16;;;;;;;3.80;3.70;;;;;;;;;;5033379;28;20482;-69
2023/07/10 09:06:53;;;;;;;3.13;3.07;;;;;;;;;;5033514;28;20416;-69
2023/07/10 09:09:19;;;;;;;5.07;3.20;;;;;;;;;;5033751;28;20411;-70
2023/07/10 09:11:45;;;;;;;4.13;3.93;;;;;;;;;;5033780;28;20416;-69
2023/07/10 09:14:21;;;;;;;3.90;3.70;;;;;;;;;;5033514;28;20181;-69
2023/07/10 09:16:47;;;;;;;6.00;4.60;;;;;;;;;;5033986;28;20414;-69
2023/07/10 09:19:15;;;;;;;4.33;4.07;;;;;;;;;;5033542;28;20419;-69
2023/07/10 09:21:42;;;;;;;3.10;3.00;;;;;;;;;;5033551;28;20420;-70
2023/07/10 09:24:13;;;;;;;4.90;4.10;;;;;;;;;;5033909;28;20510;-69
2023/07/10 09:26:39;;;;;;;4.57;4.00;;;;;;;;;;5034006;28;20487;-69
2023/07/10 09:29:11;;;;;;;3.93;3.57;;;;;;;;;;5033722;28;20485;-70
2023/07/10 09:31:47;;;;;;;4.00;3.70;;;;;;;;;;5033154;28;20416;-69
2023/07/10 09:34:12;;;;;;;4.43;4.07;;;;;;;;;;5033425;28;20422;-69
2023/07/10 09:36:38;;;;;;;13.20;4.53;;;;;;;;;;5033142;28;20415;-69
2023/07/10 09:39:05;;;;;;;4.17;3.60;;;;;;;;;;5033103;28;20463;-65
2023/07/10 09:41:31;;;;;;;5.40;4.90;;;;;;;;;;5033188;28;20415;-66
2023/07/10 09:43:58;;;;;;;5.80;3.80;;;;;;;;;;5032889;28;20486;-70
2023/07/10 09:46:29;;;;;;;5.73;5.43;;;;;;;;;;5033115;28;20506;-70
2023/07/10 09:48:56;;;;;;;12.10;5.03;;;;;;;;;;5032906;28;20459;-70
2023/07/10 09:51:22;;;;;;;4.97;4.63;;;;;;;;;;5033330;28;20431;-70
2023/07/10 09:53:52;;;;;;;8.03;4.77;;;;;;;;;;5032921;28;20977;-69
2023/07/10 09:56:35;;;;;;;4.63;4.23;;;;;;;;;;5032833;28;20424;-70
2023/07/10 09:59:01;;;;;;;8.73;4.43;;;;;;;;;;5032931;28;20400;-70
2023/07/10 10:01:28;;;;;;;4.40;3.80;;;;;;;;;;5032877;28;20450;-70
2023/07/10 10:03:55;;;;;;;3.60;3.40;;;;;;;;;;5032783;28;20475;-69
2023/07/10 10:06:23;;;;;;;4.40;4.00;;;;;;;;;;5033070;28;20435;-69
2023/07/10 10:08:50;;;;;;;4.30;4.00;;;;;;;;;;5032830;28;20498;-69
2023/07/10 10:11:17;;;;;;;5.03;4.20;;;;;;;;;;5033031;28;20408;-69
2023/07/10 10:13:43;;;;;;;7.10;4.53;;;;;;;;;;5032695;28;20420;-70
2023/07/10 10:16:14;;;;;;;4.93;4.53;;;;;;;;;;5032681;28;20456;-70
2023/07/10 10:18:42;;;;;;;5.40;3.83;;;;;;;;;;5032896;28;20184;-69
2023/07/10 10:21:10;;;;;;;7.07;4.47;;;;;;;;;;5033653;28;20412;-69
2023/07/10 10:23:37;;;;;;;4.67;3.23;;;;;;;;;;5032494;28;20485;-69
2023/07/10 10:26:12;;;;;;;6.20;3.47;;;;;;;;;;5032961;28;20407;-69
2023/07/10 10:28:44;;;;;;;4.47;3.97;;;;;;;;;;5032631;28;20914;-69
2023/07/10 10:31:11;;;;;;;4.63;4.33;;;;;;;;;;5032924;28;20481;-69
2023/07/10 10:33:40;;;;;;;10.37;4.40;;;;;;;;;;5032563;28;20907;-60
2023/07/10 10:36:15;;;;;;;4.50;4.10;;;;;;;;;;5032655;28;20942;-60
2023/07/10 10:38:44;;;;;;;4.87;4.43;;;;;;;;;;5035857;28;20963;-61
2023/07/10 10:41:13;;;;;;;6.00;4.87;;;;;;;;;;5036341;28;20419;-60
2023/07/10 10:43:39;;;;;;;4.00;3.70;;;;;;;;;;5036302;28;21039;-61
2023/07/10 10:46:11;;;;;;;4.37;4.10;;;;;;;;;;5035977;28;20436;-61
2023/07/10 10:48:51;;;;;;;5.40;4.90;;;;;;;;;;5035774;28;20191;-61
2023/07/10 10:51:31;;;;;;;4.10;3.80;;;;;;;;;;5036561;28;20409;-60
2023/07/10 10:54:03;;;;;;;4.60;4.40;;;;;;;;;;5035878;28;20411;-65
2023/07/10 10:56:37;;;;;;;7.20;4.83;;;;;;;;;;5051197;28;20870;-65
2023/07/10 10:59:02;;;;;;;4.50;4.07;;;;;;;;;;5036115;28;20415;-65
2023/07/10 11:01:37;;;;;;;7.13;4.30;;;;;;;;;;5035741;28;20419;-65
2023/07/10 11:04:21;;;;;;;6.27;4.47;;;;;;;;;;5036411;28;20222;-66
2023/07/10 11:06:47;;;;;;;5.77;4.63;;;;;;;;;;5035699;28;20462;-66
2023/07/10 11:09:25;;;;;;;5.07;4.67;;;;;;;;;;5035713;28;20415;-66
2023/07/10 11:11:51;;;;;;;11.83;4.40;;;;;;;;;;5035526;28;20890;-66
2023/07/10 11:14:17;;;;;;;5.27;4.87;;;;;;;;;;5035412;28;20427;-65
2023/07/10 11:16:43;;;;;;;4.63;4.30;;;;;;;;;;5035445;28;20425;-65
2023/07/10 11:19:14;;;;;;;7.77;4.67;;;;;;;;;;5035254;28;20465;-70
2023/07/10 11:21:40;;;;;;;5.43;4.40;;;;;;;;;;5035323;28;20412;-66
2023/07/10 11:24:17;;;;;;;4.13;4.03;;;;;;;;;;5034997;28;20482;-66
2023/07/10 11:26:43;;;;;;;8.37;4.00;;;;;;;;;;5035341;28;20423;-66
2023/07/10 11:29:30;;;;;;;4.67;4.47;;;;;;;;;;5035589;28;20917;-66
2023/07/10 11:31:58;;;;;;;4.80;4.50;;;;;;;;;;5035526;28;20403;-65
2023/07/10 11:34:24;;;;;;;4.97;4.10;;;;;;;;;;5035413;28;20426;-66
2023/07/10 11:36:50;;;;;;;6.13;4.47;;;;;;;;;;5034955;28;20416;-65
2023/07/10 11:39:18;;;;;;;5.63;4.63;;;;;;;;;;5035209;28;20180;-66
2023/07/10 11:41:44;;;;;;;5.40;4.97;;;;;;;;;;5034831;28;20411;-65
2023/07/10 11:44:19;;;;;;;4.40;4.20;;;;;;;;;;5034692;28;20522;-66
2023/07/10 11:47:14;;;;;;;6.10;4.70;;;;;;;;;;5035548;28;20306;-66
2023/07/10 11:49:44;;;;;;;3.80;3.67;;;;;;;;;;5028830;28;20487;-65
2023/07/10 11:52:11;;;;;;;3.90;3.50;;;;;;;;;;5034668;28;20511;-65
2023/07/10 11:54:38;;;;;;;6.40;4.97;;;;;;;;;;5034872;28;20407;-66
2023/07/10 11:57:04;;;;;;;4.80;4.40;;;;;;;;;;5034773;28;20422;-66
2023/07/10 11:59:30;;;;;;;4.87;4.50;;;;;;;;;;5034382;28;20435;-66
2023/07/10 12:01:56;;;;;;;6.27;4.53;;;;;;;;;;5034425;28;20513;-69
2023/07/10 12:04:25;;;;;;;4.40;4.30;;;;;;;;;;5034280;28;20561;-70
2023/07/10 12:06:51;;;;;;;4.40;4.10;;;;;;;;;;5034175;28;20945;-69
2023/07/10 12:09:17;;;;;;;4.83;4.30;;;;;;;;;;5034228;28;20423;-70
2023/07/10 12:11:46;;;;;;;5.80;4.77;;;;;;;;;;5034376;28;20416;-69
2023/07/10 12:14:14;;;;;;;5.43;4.93;;;;;;;;;;5034556;28;20426;-70
2023/07/10 12:16:54;;;;;;;4.37;4.07;;;;;;;;;;5034508;28;20417;-69
2023/07/10 12:19:24;;;;;;;6.90;4.80;;;;;;;;;;5034254;28;20417;-70
2023/07/10 12:21:50;;;;;;;4.83;4.40;;;;;;;;;;5034410;28;20806;-70
2023/07/10 12:24:17;;;;;;;4.73;4.53;;;;;;;;;;5033719;28;20474;-70
2023/07/10 12:26:43;;;;;;;6.20;3.93;;;;;;;;;;5049502;28;20419;-70
2023/07/10 12:29:13;;;;;;;4.20;3.90;;;;;;;;;;5034158;28;20466;-69
2023/07/10 12:31:40;;;;;;;10.23;4.70;;;;;;;;;;5034042;28;20420;-70
2023/07/10 12:34:06;;;;;;;4.80;4.40;;;;;;;;;;5034300;28;20419;-69
2023/07/10 12:36:41;;;;;;;6.67;4.70;;;;;;;;;;5033922;28;20400;-69
2023/07/10 12:39:08;;;;;;;4.13;3.80;;;;;;;;;;5033907;28;20407;-70
2023/07/10 12:41:38;;;;;;;3.23;3.13;;;;;;;;;;5034117;28;20407;-70
2023/07/10 12:44:05;;;;;;;5.07;4.70;;;;;;;;;;5033893;28;20562;-69
2023/07/10 12:46:31;;;;;;;4.33;4.20;;;;;;;;;;5033745;28;20554;-70
2023/07/10 12:49:00;;;;;;;4.70;4.37;;;;;;;;;;5049290;28;20475;-69
2023/07/10 12:51:30;;;;;;;4.50;4.40;;;;;;;;;;5033660;28;20516;-70
2023/07/10 12:53:58;;;;;;;9.70;3.93;;;;;;;;;;5048875;28;20832;-69
2023/07/10 12:56:26;;;;;;;3.60;3.40;;;;;;;;;;5033811;28;20918;-70
2023/07/10 12:58:54;;;;;;;3.50;3.20;;;;;;;;;;5033526;28;20415;-70
2023/07/10 13:01:21;;;;;;;4.83;4.60;;;;;;;;;;5048452;28;20812;-70
2023/07/10 13:04:07;;;;;;;5.33;4.10;;;;;;;;;;5033280;28;20938;-69
2023/07/10 13:06:34;;;;;;;12.93;5.87;;;;;;;;;;5029471;28;20899;-69
2023/07/10 13:09:04;;;;;;;4.20;3.97;;;;;;;;;;5033712;28;20419;-70
2023/07/10 13:11:30;;;;;;;5.00;4.70;;;;;;;;;;5033486;28;20421;-70
2023/07/10 13:13:56;;;;;;;3.77;3.50;;;;;;;;;;5033360;28;20423;-69
2023/07/10 13:16:23;;;;;;;4.20;4.00;;;;;;;;;;5033347;28;20414;-70
2023/07/10 13:18:49;;;;;;;4.37;4.07;;;;;;;;;;5048591;28;20427;-69
2023/07/10 13:21:16;;;;;;;3.87;3.60;;;;;;;;;;5033472;28;20426;-70
2023/07/10 13:23:42;;;;;;;4.87;4.47;;;;;;;;;;5033372;28;20483;-69
2023/07/10 13:26:15;;;;;;;4.67;4.17;;;;;;;;;;5033417;28;20915;-69
2023/07/10 13:28:41;;;;;;;4.00;3.70;;;;;;;;;;5033447;28;20410;-69
2023/07/10 13:31:06;;;;;;;5.77;4.43;;;;;;;;;;5033333;28;20416;-69
2023/07/10 13:33:33;;;;;;;4.30;4.20;;;;;;;;;;5033438;28;20477;-69
2023/07/10 13:35:59;;;;;;;5.30;3.90;;;;;;;;;;5033667;28;20173;-69
2023/07/10 13:38:26;;;;;;;4.53;4.23;;;;;;;;;;5033020;28;20825;-69
2023/07/10 13:40:52;;;;;;;3.80;3.70;;;;;;;;;;5033413;28;20461;-69
2023/07/10 13:43:19;;;;;;;4.77;4.57;;;;;;;;;;5033299;28;20852;-69
2023/07/10 13:45:46;;;;;;;5.23;4.40;;;;;;;;;;5032962;28;20517;-69
2023/07/10 13:48:16;;;;;;;5.27;4.80;;;;;;;;;;5033079;28;20414;-69
2023/07/10 13:50:45;;;;;;;5.53;5.13;;;;;;;;;;5032834;28;20554;-69
2023/07/10 13:53:16;;;;;;;8.17;4.50;;;;;;;;;;5048226;28;20930;-69
2023/07/10 13:55:42;;;;;;;5.07;4.77;;;;;;;;;;5033150;28;20780;-69
2023/07/10 13:58:15;;;;;;;16.00;4.83;;;;;;;;;;5032665;28;20507;-69
2023/07/10 14:00:42;;;;;;;4.20;3.90;;;;;;;;;;5048078;28;20956;-69
2023/07/10 14:03:09;;;;;;;3.40;3.20;;;;;;;;;;5033033;28;20470;-69
2023/07/10 14:05:35;;;;;;;3.30;3.00;;;;;;;;;;5032933;28;20454;-69
2023/07/10 14:08:02;;;;;;;4.67;4.20;;;;;;;;;;5033034;28;20411;-69
2023/07/10 14:10:27;;;;;;;4.30;4.10;;;;;;;;;;5033137;28;20506;-69
2023/07/10 14:12:53;;;;;;;4.60;4.20;;;;;;;;;;5035203;28;20485;-69
2023/07/10 14:15:20;;;;;;;4.63;4.43;;;;;;;;;;5036869;28;20184;-69
2023/07/10 14:17:47;;;;;;;4.03;3.67;;;;;;;;;;5036659;28;20423;-69
2023/07/10 14:20:20;;;;;;;4.20;3.90;;;;;;;;;;5036606;28;20430;-70
2023/07/10 14:22:46;;;;;;;3.60;3.40;;;;;;;;;;5036451;28;20537;-69
2023/07/10 14:25:13;;;;;;;4.80;4.37;;;;;;;;;;5036565;28;20426;-69
2023/07/10 14:27:39;;;;;;;3.93;3.77;;;;;;;;;;5036506;28;20426;-69
2023/07/10 14:30:05;;;;;;;4.10;4.00;;;;;;;;;;5036949;28;20427;-69
2023/07/10 14:32:31;;;;;;;4.53;4.17;;;;;;;;;;5036474;28;20407;-69
2023/07/10 14:34:57;;;;;;;3.60;3.40;;;;;;;;;;5036659;28;20419;-69
2023/07/10 14:37:26;;;;;;;8.07;4.40;;;;;;;;;;5036494;28;20445;-69
2023/07/10 14:39:52;;;;;;;4.00;3.80;;;;;;;;;;5036068;28;20517;-69
2023/07/10 14:42:24;;;;;;;3.93;3.80;;;;;;;;;;5036386;28;20441;-69
2023/07/10 14:44:51;;;;;;;5.57;3.80;;;;;;;;;;5036357;28;20518;-69